This is the latest recevied weather packets stored in our database for station/object DK4DO-10. If no packets are shown the sender has not sent any weather packets the latest 10 day(s).
| Time | Temp. | Humidity | Pressure | Rain* | Wind** | Luminosity | Snow |
|---|---|---|---|---|---|---|---|
| 1777571574 | 20.56° C | 16% | 1020.3 hPa | - | - | - | - |
| 1777570974 | 20.56° C | 15% | 1020.2 hPa | - | - | - | - |
| 1777570373 | 20.56° C | 15% | 1020.4 hPa | - | - | - | - |
| 1777569773 | 21.11° C | 14% | 1020.2 hPa | - | - | - | - |
| 1777569173 | 21.67° C | 14% | 1020.2 hPa | - | - | - | - |
| 1777568573 | 21.67° C | 14% | 1020.4 hPa | - | - | - | - |
| 1777567972 | 21.67° C | 14% | 1020.3 hPa | - | - | - | - |
| 1777567372 | 21.67° C | 13% | 1020.4 hPa | - | - | - | - |
| 1777566772 | 21.67° C | 14% | 1020.4 hPa | - | - | - | - |
| 1777566172 | 21.67° C | 13% | 1020.4 hPa | - | - | - | - |
| 1777565572 | 21.67° C | 14% | 1020.5 hPa | - | - | - | - |
| 1777564971 | 22.22° C | 13% | 1020.4 hPa | - | - | - | - |
| 1777564371 | 22.22° C | 12% | 1020.5 hPa | - | - | - | - |
| 1777563771 | 22.22° C | 12% | 1020.4 hPa | - | - | - | - |
| 1777563171 | 21.11° C | 13% | 1020.6 hPa | - | - | - | - |
| 1777562571 | 21.11° C | 12% | 1020.5 hPa | - | - | - | - |
| 1777561970 | 21.11° C | 13% | 1020.5 hPa | - | - | - | - |
| 1777561370 | 21.67° C | 12% | 1020.6 hPa | - | - | - | - |
| 1777560770 | 21.11° C | 13% | 1020.7 hPa | - | - | - | - |
| 1777560170 | 21.11° C | 13% | 1020.7 hPa | - | - | - | - |
| 1777559570 | 21.11° C | 13% | 1020.8 hPa | - | - | - | - |
| 1777558969 | 21.11° C | 12% | 1021 hPa | - | - | - | - |
| 1777558369 | 21.11° C | 13% | 1021.1 hPa | - | - | - | - |
| 1777557769 | 21.11° C | 13% | 1021.2 hPa | - | - | - | - |
| 1777557169 | 20° C | 13% | 1021.4 hPa | - | - | - | - |
* Rain since midnight (hover to see other rain measurements)
** Current wind speed in m/s (hover to see current wind gust speed)